EmailTwitter


Observations de surface / Québec / CYUL (71627)

Régions: Québec | Canada | États-Unis | Europe | France | UK | Ailleurs
Station
Affichage
Infos & localisation pour CYUL (71627) | Aide pour décoder les METARs

Observations prises le 2018-09-25 à 13H00 UTC à MONTREAL INTL A, QB (CYUL)

Etat du ciel: couvert.

Obstacle(s) à la visibilité: faible pluie.

Température: 12.0 Celsius

Point de rosée: 8.0 Celsius

Humidité relative: 77%

Facteur vent: 9.

Facteur vent (rafales): 9.

Vents: Sud-est à 28 km/h ou 15 noeuds.

Rafale du vent: 39 km/h ou 21 noeuds.

Pression au niveau moyen de la mer: 102.71 kilopascals.

Calage altimétrique: 102.67 kilopascals ou 30.32 pouces de mercure.

Visibilité horizontale: 8.00 milles terrestres ou 12.80 kilomètres.

Hauteur du plafond: 1219 mètres ( 4000 pieds ).

Observation METAR:

CYUL 251300Z 14015G21KT 8SM -RA BKN040 OVC055 12/08 A3032 RMK SC7SC1 SLP271=